Bookmark and Share
Track history (hours):
 

Linden Pride

Last reported at 2014-Apr-15 03:34 UTC. Time now 2014-Apr-20 03:18 UTC.
Position N 35°02' E 139°36'.

Length 230 m; beam 36.6 m.

Type: Ship (hazmat cat A). MMSI: 356677000.

NotesDate/timePositionNaut miles runAvg speedWind from/ knotsBaromVisibWave heightAir tempDewpointWater temp
2014-Apr-15 03:34N 35°02' E 139°36'1313.2
2014-Apr-15 02:34N 35°12' E 139°46'1212.4
2014-Apr-15 01:34N 35°24' E 139°43'6 6.0
2014-Apr-15 00:34N 35°30' E 139°45'0 0.0
2014-Apr-14 23:34N 35°30' E 139°45'0 0.0
2014-Apr-14 22:34N 35°30' E 139°45'0 0.0
2014-Apr-14 21:34N 35°30' E 139°45'0 0.0
2014-Apr-14 20:34N 35°30' E 139°45'0 0.0
2014-Apr-14 19:33N 35°30' E 139°45'0 0.0
2014-Apr-14 18:33N 35°30' E 139°45'0 0.0
2014-Apr-14 17:33N 35°30' E 139°45'0 0.0
2014-Apr-14 16:33N 35°30' E 139°45'0 0.0
2014-Apr-14 15:33N 35°30' E 139°45'0 0.0
2014-Apr-14 14:33N 35°30' E 139°45'0 0.0
2014-Apr-14 13:33N 35°30' E 139°45'0 0.0
2014-Apr-14 11:33N 35°30' E 139°45'0 0.0
2014-Apr-14 10:33N 35°30' E 139°45'0 0.0
2014-Apr-14 09:33N 35°30' E 139°45'0 0.0
2014-Apr-14 08:33N 35°30' E 139°45'0 0.0
2014-Apr-14 07:33N 35°30' E 139°45'0 0.0
2014-Apr-14 06:33N 35°30' E 139°45'0 0.0
2014-Apr-14 05:33N 35°30' E 139°45'1 0.2
2014-Apr-13 22:31N 35°31' E 139°46'0 0.0
2014-Apr-13 21:31N 35°31' E 139°46'0 0.0
2014-Apr-13 20:25N 35°31' E 139°46'0 0.0
2014-Apr-13 19:31N 35°31' E 139°46'0 0.0
2014-Apr-13 18:25N 35°31' E 139°46'0 0.1
2014-Apr-13 17:31N 35°31' E 139°46'0 0.0
2014-Apr-13 16:28N 35°31' E 139°46'0 0.0
2014-Apr-13 15:31N 35°31' E 139°46'0 0.0
2014-Apr-13 14:31N 35°31' E 139°46'0 0.0
2014-Apr-13 13:22N 35°31' E 139°46'0 0.0
2014-Apr-13 12:31N 35°31' E 139°46'0 0.0
2014-Apr-13 11:25N 35°31' E 139°46'0 0.0
2014-Apr-13 10:31N 35°31' E 139°46'0 0.0
2014-Apr-13 09:31N 35°31' E 139°46'0 0.0
2014-Apr-13 08:31N 35°31' E 139°46'0 0.0
2014-Apr-13 07:28N 35°31' E 139°46'0 0.1
2014-Apr-13 06:31N 35°31' E 139°46'0 0.0
2014-Apr-13 05:31N 35°31' E 139°46'0 0.0
2014-Apr-13 04:31N 35°31' E 139°46'0 0.0
2014-Apr-13 03:28N 35°31' E 139°46'0 0.0
2014-Apr-13 02:31N 35°31' E 139°46'0 0.0
2014-Apr-13 01:31N 35°31' E 139°46'0 0.0
2014-Apr-13 00:26N 35°31' E 139°46'1 0.7
2014-Apr-12 23:33N 35°31' E 139°46'0 0.0
2014-Apr-12 22:33N 35°31' E 139°46'0 0.0
2014-Apr-12 21:33N 35°31' E 139°46'0 0.0
2014-Apr-12 20:33N 35°31' E 139°46'0 0.0
2014-Apr-12 19:33N 35°31' E 139°46'0 0.0
2014-Apr-12 18:33N 35°31' E 139°46'0 0.0
2014-Apr-12 17:33N 35°31' E 139°46'0 0.0
2014-Apr-12 16:33N 35°31' E 139°46'0 0.0
2014-Apr-12 15:33N 35°31' E 139°46'0 0.0
2014-Apr-12 14:33N 35°31' E 139°46'0 0.0
2014-Apr-12 13:33N 35°31' E 139°46'0 0.0
2014-Apr-12 12:33N 35°31' E 139°46'0 0.0
2014-Apr-12 11:33N 35°31' E 139°46'0 0.0
2014-Apr-12 10:33N 35°31' E 139°46'0 0.0
2014-Apr-12 09:33N 35°31' E 139°46'0 0.0
2014-Apr-12 08:33N 35°31' E 139°46'0 0.0
2014-Apr-12 07:33N 35°31' E 139°46'0 0.0
2014-Apr-12 06:33N 35°31' E 139°46'0 0.0
2014-Apr-12 05:33N 35°31' E 139°46'0 0.0
2014-Apr-12 04:33N 35°31' E 139°46'0 0.0
2014-Apr-12 03:33N 35°31' E 139°46'0 0.0
2014-Apr-12 02:33N 35°31' E 139°46'1 1.1
2014-Apr-12 01:33N 35°30' E 139°47'8 8.0
2014-Apr-12 00:33N 35°22' E 139°45'1111.2
2014-Apr-11 23:33N 35°11' E 139°47'9 8.5
2014-Apr-11 22:31N 35°03' E 139°44'8 7.7
2014-Apr-11 21:31N 34°55' E 139°41'8 8.7
2014-Apr-11 20:33N 34°47' E 139°41'  

Dump ship's entire track history

sailing weather and tide predictions

Linden Pride — H3VP — position and weather